createdAt,value
2018-11-13T00:01:58.713Z,9.60
2018-11-13T00:04:27.777Z,9.60
2018-11-13T00:06:56.276Z,9.50
2018-11-13T00:09:24.721Z,9.50
2018-11-13T00:11:53.231Z,9.60
2018-11-13T00:14:21.719Z,9.50
2018-11-13T00:16:50.237Z,9.50
2018-11-13T00:19:18.775Z,9.50
2018-11-13T00:21:47.205Z,9.50
2018-11-13T00:24:15.764Z,9.50
2018-11-13T00:26:44.276Z,9.50
2018-11-13T00:29:12.752Z,9.50
2018-11-13T00:31:41.209Z,9.50
2018-11-13T00:34:09.615Z,9.40
2018-11-13T00:36:39.692Z,9.40
2018-11-13T00:39:11.618Z,9.50
2018-11-13T00:41:40.079Z,9.50
2018-11-13T00:44:08.861Z,9.50
2018-11-13T00:46:37.735Z,9.50
2018-11-13T00:49:06.203Z,9.50
2018-11-13T00:51:35.181Z,9.50
2018-11-13T00:54:03.669Z,9.60
2018-11-13T00:56:32.276Z,9.60
2018-11-13T00:59:00.691Z,9.60
2018-11-13T01:01:29.183Z,9.50
2018-11-13T01:03:57.594Z,9.40
2018-11-13T01:06:27.093Z,9.50
2018-11-13T01:08:55.573Z,9.40
2018-11-13T01:11:24.033Z,9.40
2018-11-13T01:13:52.462Z,9.40
2018-11-13T01:16:20.983Z,9.40
2018-11-13T01:18:49.488Z,9.40
2018-11-13T01:21:17.958Z,9.50
2018-11-13T01:23:47.645Z,9.40
2018-11-13T01:26:16.107Z,9.40
2018-11-13T01:28:44.565Z,9.40
2018-11-13T01:31:13.037Z,9.40
2018-11-13T01:33:41.460Z,9.40
2018-11-13T01:36:09.960Z,9.40
2018-11-13T01:38:38.432Z,9.40
2018-11-13T01:41:06.864Z,9.40
2018-11-13T01:43:35.303Z,9.40
2018-11-13T01:46:03.798Z,9.40
2018-11-13T01:48:32.233Z,9.40
2018-11-13T01:51:00.678Z,9.40
2018-11-13T01:53:29.098Z,9.50
2018-11-13T01:55:57.548Z,9.50
2018-11-13T01:58:26.016Z,9.50
2018-11-13T02:00:55.480Z,9.50
2018-11-13T02:03:23.948Z,9.50
2018-11-13T02:05:52.410Z,9.50
2018-11-13T02:08:21.205Z,9.50
2018-11-13T02:10:49.676Z,9.50
2018-11-13T02:13:18.096Z,9.50
2018-11-13T02:15:46.930Z,9.50
2018-11-13T02:18:15.388Z,9.50
2018-11-13T02:20:43.841Z,9.50
2018-11-13T02:23:12.325Z,9.50
2018-11-13T02:25:40.761Z,9.50
2018-11-13T02:28:09.184Z,9.50
2018-11-13T02:30:37.619Z,9.50
2018-11-13T02:33:06.339Z,9.50
2018-11-13T02:35:34.873Z,9.50
2018-11-13T02:38:03.312Z,9.50
2018-11-13T02:40:31.737Z,9.50
2018-11-13T02:43:00.209Z,9.50
2018-11-13T02:45:28.621Z,9.40
2018-11-13T02:47:57.105Z,9.40
2018-11-13T02:50:25.524Z,9.40
2018-11-13T02:52:53.932Z,9.50
2018-11-13T02:55:22.402Z,9.50
2018-11-13T02:57:50.855Z,9.50
2018-11-13T03:00:20.873Z,9.50
2018-11-13T03:04:18.786Z,9.50
2018-11-13T03:06:47.208Z,9.50
2018-11-13T03:09:15.686Z,9.50
2018-11-13T03:11:44.127Z,9.50
2018-11-13T03:14:12.593Z,9.50
2018-11-13T03:16:40.969Z,9.40
2018-11-13T03:19:09.375Z,9.40
2018-11-13T03:21:37.800Z,9.40
2018-11-13T03:24:06.288Z,9.50
2018-11-13T03:26:34.706Z,9.40
2018-11-13T03:29:03.133Z,9.40
2018-11-13T03:31:31.613Z,9.40
2018-11-13T03:34:00.057Z,9.40
2018-11-13T03:36:28.523Z,9.40
2018-11-13T03:38:56.985Z,9.40
2018-11-13T03:41:25.423Z,9.40
2018-11-13T03:43:53.845Z,9.40
2018-11-13T03:46:22.276Z,9.40
2018-11-13T03:48:50.707Z,9.40
2018-11-13T03:51:19.116Z,9.40
2018-11-13T03:53:47.582Z,9.30
2018-11-13T03:56:16.007Z,9.40
2018-11-13T03:58:44.433Z,9.40
2018-11-13T04:01:12.927Z,9.40
2018-11-13T04:03:41.397Z,9.40
2018-11-13T04:06:09.827Z,9.40
2018-11-13T04:08:38.255Z,9.40
2018-11-13T04:11:06.706Z,9.40
2018-11-13T04:13:35.151Z,9.40
2018-11-13T04:16:03.648Z,9.40
2018-11-13T04:18:32.109Z,9.40
2018-11-13T04:21:00.554Z,9.40
2018-11-13T04:23:28.996Z,9.50
2018-11-13T04:25:57.422Z,9.50
2018-11-13T04:28:25.886Z,9.40
2018-11-13T04:30:55.167Z,9.50
2018-11-13T04:33:24.466Z,9.50
2018-11-13T04:35:52.854Z,9.50
2018-11-13T04:38:21.266Z,9.50
2018-11-13T04:40:49.720Z,9.50
2018-11-13T04:43:18.189Z,9.40
2018-11-13T04:45:47.443Z,9.40
2018-11-13T04:48:15.956Z,9.40
2018-11-13T04:50:44.389Z,9.40
2018-11-13T04:53:12.835Z,9.40
2018-11-13T04:55:41.242Z,9.40
2018-11-13T04:58:09.692Z,9.50
2018-11-13T05:00:38.873Z,9.50
2018-11-13T05:03:07.374Z,9.50
2018-11-13T05:05:35.849Z,9.50
2018-11-13T05:08:04.393Z,9.50
2018-11-13T05:10:33.485Z,9.50
2018-11-13T05:13:01.935Z,9.50
2018-11-13T05:15:30.355Z,9.50
2018-11-13T05:17:58.797Z,9.50
2018-11-13T05:20:27.218Z,9.60
2018-11-13T05:22:55.772Z,9.60
2018-11-13T05:25:25.471Z,9.60
2018-11-13T05:27:53.893Z,9.60
2018-11-13T05:30:22.846Z,9.70
2018-11-13T05:32:51.661Z,9.70
2018-11-13T05:35:21.129Z,9.70
2018-11-13T05:37:49.592Z,9.70
2018-11-13T05:40:19.310Z,9.70
2018-11-13T05:42:48.574Z,9.70
2018-11-13T05:45:18.490Z,9.70
2018-11-13T05:47:46.932Z,9.80
2018-11-13T05:50:16.272Z,9.80
2018-11-13T05:52:45.472Z,9.80
2018-11-13T05:55:14.471Z,9.70
2018-11-13T05:57:42.941Z,9.70
2018-11-13T06:00:13.636Z,9.80
2018-11-13T06:02:42.075Z,9.80
2018-11-13T06:05:11.039Z,9.90
2018-11-13T06:07:40.800Z,9.90
2018-11-13T06:10:10.405Z,9.90
2018-11-13T06:12:38.829Z,9.90
2018-11-13T06:15:07.862Z,10.00
2018-11-13T06:17:36.272Z,10.00
2018-11-13T06:20:05.132Z,10.00
2018-11-13T06:22:33.761Z,10.00
2018-11-13T06:25:02.190Z,10.00
2018-11-13T06:27:30.599Z,10.00
2018-11-13T06:29:59.034Z,9.90
2018-11-13T06:32:27.436Z,10.00
2018-11-13T06:34:55.834Z,10.00
2018-11-13T06:37:24.282Z,10.00
2018-11-13T06:39:52.749Z,10.00
2018-11-13T06:42:21.307Z,10.00
2018-11-13T06:44:49.759Z,10.00
2018-11-13T06:47:18.261Z,10.00
2018-11-13T06:49:46.759Z,10.10
2018-11-13T06:52:15.227Z,10.10
2018-11-13T06:55:11.672Z,10.20
2018-11-13T06:57:40.125Z,10.20
2018-11-13T07:00:09.580Z,10.20
2018-11-13T07:02:38.690Z,10.30
2018-11-13T07:05:09.503Z,10.30
2018-11-13T07:07:37.929Z,10.30
2018-11-13T07:10:07.521Z,10.30
2018-11-13T07:12:35.973Z,10.30
2018-11-13T07:15:04.756Z,10.40
2018-11-13T07:17:35.069Z,10.40
2018-11-13T07:20:03.768Z,10.50
2018-11-13T07:22:32.204Z,10.50
2018-11-13T07:25:00.633Z,10.50
2018-11-13T07:27:30.073Z,10.50
2018-11-13T07:29:58.668Z,10.50
2018-11-13T07:32:27.111Z,10.50
2018-11-13T07:34:55.559Z,10.50
2018-11-13T07:37:24.163Z,10.50
2018-11-13T07:39:52.610Z,10.50
2018-11-13T07:42:21.320Z,10.50
2018-11-13T07:44:49.784Z,10.50
2018-11-13T07:47:18.337Z,10.60
2018-11-13T07:49:47.730Z,10.50
2018-11-13T07:52:16.222Z,10.60
2018-11-13T07:54:44.697Z,10.60
2018-11-13T07:57:13.149Z,10.60
2018-11-13T07:59:41.623Z,10.70
2018-11-13T08:02:10.088Z,10.70
2018-11-13T08:04:38.637Z,10.70
2018-11-13T08:07:07.885Z,10.70
2018-11-13T08:09:36.365Z,10.70
2018-11-13T08:12:04.891Z,10.70
2018-11-13T08:14:33.433Z,10.70
2018-11-13T08:17:02.899Z,10.70
2018-11-13T08:19:32.107Z,10.80
2018-11-13T08:22:00.587Z,10.90
2018-11-13T08:24:29.061Z,10.90
2018-11-13T08:26:57.563Z,11.00
2018-11-13T08:29:26.048Z,11.00
2018-11-13T08:31:54.492Z,11.00
2018-11-13T08:34:22.991Z,11.00
2018-11-13T08:36:51.505Z,11.00
2018-11-13T08:39:19.992Z,11.00
2018-11-13T08:41:48.432Z,10.90
2018-11-13T08:44:17.809Z,11.00
2018-11-13T08:46:46.226Z,10.90
2018-11-13T08:49:14.682Z,10.90
2018-11-13T08:51:43.224Z,10.90
2018-11-13T08:54:12.822Z,10.90
2018-11-13T08:56:41.365Z,10.80
2018-11-13T08:59:09.999Z,10.80
2018-11-13T09:01:38.365Z,10.80
2018-11-13T09:04:06.829Z,10.80
2018-11-13T09:06:35.256Z,10.80
2018-11-13T09:09:04.968Z,10.80
2018-11-13T09:11:33.479Z,10.80
2018-11-13T09:14:01.946Z,10.80
2018-11-13T09:16:30.404Z,10.80
2018-11-13T09:18:58.910Z,10.80
2018-11-13T09:21:28.004Z,10.80
2018-11-13T09:23:56.487Z,11.00
2018-11-13T09:26:24.917Z,11.00
2018-11-13T09:28:53.432Z,11.20
2018-11-13T09:31:21.975Z,11.70
2018-11-13T09:33:50.362Z,11.90
2018-11-13T09:36:18.928Z,12.10
2018-11-13T09:38:47.391Z,12.00
2018-11-13T09:41:16.055Z,11.90
2018-11-13T09:43:44.529Z,11.90
2018-11-13T09:46:13.249Z,11.70
2018-11-13T09:48:41.719Z,11.80
2018-11-13T09:51:10.248Z,11.60
2018-11-13T09:53:38.857Z,11.60
2018-11-13T09:56:07.234Z,11.50
2018-11-13T09:58:35.696Z,11.70
2018-11-13T10:01:04.449Z,12.10
2018-11-13T10:03:33.120Z,11.60
2018-11-13T10:06:01.347Z,11.50
2018-11-13T10:08:29.794Z,11.60
2018-11-13T10:10:58.235Z,11.50
2018-11-13T10:13:26.664Z,11.70
2018-11-13T10:15:56.052Z,12.00
2018-11-13T10:18:24.721Z,12.00
2018-11-13T10:20:52.996Z,12.00
2018-11-13T10:23:21.451Z,12.00
2018-11-13T10:25:49.962Z,11.90
2018-11-13T10:28:19.440Z,11.70
2018-11-13T10:30:47.941Z,11.70
2018-11-13T10:33:16.454Z,11.70
2018-11-13T10:35:44.921Z,11.80
2018-11-13T10:38:13.396Z,11.90
2018-11-13T10:40:42.089Z,11.90
2018-11-13T10:43:10.425Z,12.10
2018-11-13T10:45:38.834Z,12.20
2018-11-13T10:48:07.296Z,12.10
2018-11-13T10:50:35.790Z,11.90
2018-11-13T10:53:04.462Z,12.00
2018-11-13T10:55:32.893Z,12.10
2018-11-13T10:58:01.376Z,12.20
2018-11-13T11:00:34.992Z,12.50
2018-11-13T11:03:05.464Z,12.80
2018-11-13T11:05:33.822Z,13.00
2018-11-13T11:08:02.304Z,12.70
2018-11-13T11:10:30.784Z,12.70
2018-11-13T11:12:59.346Z,13.00
2018-11-13T11:15:27.657Z,13.10
2018-11-13T11:17:56.200Z,12.80
2018-11-13T11:20:24.725Z,13.00
2018-11-13T11:22:53.187Z,12.90
2018-11-13T11:25:21.758Z,13.00
2018-11-13T11:27:51.112Z,13.00
2018-11-13T11:30:19.758Z,12.90
2018-11-13T11:32:48.217Z,12.90
2018-11-13T11:35:16.729Z,12.70
2018-11-13T11:37:45.221Z,13.20
2018-11-13T11:40:13.760Z,13.00
2018-11-13T11:42:42.182Z,13.30
2018-11-13T11:45:12.537Z,13.10
2018-11-13T11:47:42.235Z,13.10
2018-11-13T11:50:11.740Z,12.90
2018-11-13T11:52:40.235Z,12.70
2018-11-13T11:55:09.432Z,12.80
2018-11-13T11:57:37.881Z,12.90
2018-11-13T12:00:09.460Z,12.80
2018-11-13T12:02:38.014Z,12.80
2018-11-13T12:05:07.182Z,12.80
2018-11-13T12:07:36.247Z,12.90
2018-11-13T12:10:06.354Z,13.00
2018-11-13T12:12:34.851Z,13.30
2018-11-13T12:15:03.631Z,13.50
2018-11-13T12:17:32.196Z,13.40
2018-11-13T12:20:00.709Z,13.10
2018-11-13T12:22:29.192Z,13.00
2018-11-13T12:24:57.621Z,12.90
2018-11-13T12:27:26.123Z,12.90
2018-11-13T12:29:54.665Z,12.90
2018-11-13T12:32:23.138Z,12.90
2018-11-13T12:34:51.709Z,12.90
2018-11-13T12:37:20.208Z,13.00
2018-11-13T12:39:48.680Z,13.20
2018-11-13T12:42:17.184Z,13.40
2018-11-13T12:44:45.673Z,13.20
2018-11-13T12:47:14.155Z,13.20
2018-11-13T12:49:42.683Z,13.10
2018-11-13T12:52:17.978Z,13.10
2018-11-13T12:54:47.210Z,13.00
2018-11-13T12:57:15.669Z,13.10
2018-11-13T12:59:44.139Z,13.30
2018-11-13T13:02:13.015Z,13.70
2018-11-13T13:04:41.380Z,14.00
2018-11-13T13:07:10.224Z,14.00
2018-11-13T13:09:39.160Z,14.00
2018-11-13T13:12:09.156Z,14.40
2018-11-13T13:14:37.702Z,14.00
2018-11-13T13:17:06.337Z,13.60
2018-11-13T13:19:34.776Z,13.50
2018-11-13T13:22:03.283Z,13.30
2018-11-13T13:24:31.721Z,13.20
2018-11-13T13:27:00.196Z,13.40
2018-11-13T13:29:28.680Z,13.20
2018-11-13T13:31:57.141Z,13.40
2018-11-13T13:34:25.822Z,13.70
2018-11-13T13:36:54.308Z,14.10
2018-11-13T13:39:22.749Z,14.20
2018-11-13T13:41:51.341Z,14.40
2018-11-13T13:44:19.822Z,14.50
2018-11-13T13:46:48.372Z,14.20
2018-11-13T13:49:16.806Z,13.90
2018-11-13T13:51:45.270Z,14.00
2018-11-13T13:54:13.843Z,13.80
2018-11-13T13:56:43.297Z,13.60
2018-11-13T13:59:11.768Z,13.50
2018-11-13T14:01:41.214Z,13.40
2018-11-13T14:04:09.744Z,13.40
2018-11-13T14:06:38.207Z,13.50
2018-11-13T14:09:09.073Z,13.40
2018-11-13T14:11:37.704Z,13.40
2018-11-13T14:14:06.298Z,13.40
2018-11-13T14:16:34.735Z,13.30
2018-11-13T14:19:03.187Z,13.30
2018-11-13T14:21:31.698Z,13.30
2018-11-13T14:24:00.183Z,13.20
2018-11-13T14:26:28.685Z,13.20
2018-11-13T14:28:57.152Z,13.30
2018-11-13T14:31:25.748Z,13.40
2018-11-13T14:33:54.316Z,13.50
2018-11-13T14:36:22.794Z,13.50
2018-11-13T14:38:51.310Z,13.60
2018-11-13T14:41:19.787Z,13.50
2018-11-13T14:43:48.243Z,13.30
2018-11-13T14:46:17.408Z,13.20
2018-11-13T14:48:45.868Z,13.20
2018-11-13T14:51:14.374Z,13.20
2018-11-13T14:53:42.877Z,13.10
2018-11-13T14:56:11.391Z,13.20
2018-11-13T14:58:39.817Z,13.20
2018-11-13T15:01:08.312Z,13.10
2018-11-13T15:03:37.379Z,13.00
2018-11-13T15:06:06.049Z,13.10
2018-11-13T15:08:34.662Z,13.10
2018-11-13T15:11:02.985Z,13.00
2018-11-13T15:13:31.774Z,12.90
2018-11-13T15:16:00.232Z,13.00
2018-11-13T15:18:28.694Z,12.90
2018-11-13T15:20:57.185Z,12.90
2018-11-13T15:23:26.064Z,12.90
2018-11-13T15:25:54.537Z,12.80
2018-11-13T15:28:22.985Z,12.80
2018-11-13T15:30:51.617Z,12.70
2018-11-13T15:33:21.581Z,12.70
2018-11-13T15:35:50.078Z,12.60
2018-11-13T15:38:18.535Z,12.60
2018-11-13T15:40:47.034Z,12.50
2018-11-13T15:43:15.485Z,12.50
2018-11-13T15:45:43.917Z,12.50
2018-11-13T15:48:13.570Z,12.40
2018-11-13T15:50:42.031Z,12.40
2018-11-13T15:53:10.719Z,12.30
2018-11-13T15:55:39.176Z,12.30
2018-11-13T15:58:07.836Z,12.20
2018-11-13T16:00:37.691Z,12.20
2018-11-13T16:03:09.999Z,12.10
2018-11-13T16:05:42.688Z,12.00
2018-11-13T16:08:11.603Z,12.00
2018-11-13T16:10:40.117Z,12.00
2018-11-13T16:13:08.839Z,11.90
2018-11-13T16:15:37.417Z,11.90
2018-11-13T16:18:07.468Z,11.90
2018-11-13T16:20:35.994Z,11.90
2018-11-13T16:23:05.812Z,11.80
2018-11-13T16:25:34.240Z,11.80
2018-11-13T16:28:02.686Z,11.80
2018-11-13T16:30:32.581Z,11.80
2018-11-13T16:33:01.058Z,11.60
2018-11-13T16:35:30.231Z,11.60
2018-11-13T16:37:59.693Z,11.60
2018-11-13T16:40:30.281Z,11.60
2018-11-13T16:42:58.957Z,11.60
2018-11-13T16:45:28.315Z,11.50
2018-11-13T16:47:57.325Z,11.60
2018-11-13T16:50:29.846Z,11.60
2018-11-13T16:52:58.733Z,11.60
2018-11-13T16:55:32.565Z,11.50
2018-11-13T16:58:02.361Z,11.50
2018-11-13T17:00:30.949Z,11.40
2018-11-13T17:02:59.419Z,11.50
2018-11-13T17:12:14.515Z,11.20
2018-11-13T17:14:43.842Z,11.10
2018-11-13T17:17:12.356Z,11.00
2018-11-13T17:19:40.818Z,11.00
2018-11-13T17:22:09.416Z,11.00
2018-11-13T17:24:37.871Z,11.00
2018-11-13T17:27:06.467Z,10.90
2018-11-13T17:29:34.943Z,10.90
2018-11-13T17:32:03.474Z,10.80
2018-11-13T17:34:31.928Z,10.70
2018-11-13T17:37:00.408Z,10.70
2018-11-13T17:39:28.837Z,10.70
2018-11-13T17:41:57.295Z,10.70
2018-11-13T17:44:25.858Z,10.60
2018-11-13T17:46:54.343Z,10.60
2018-11-13T17:49:22.782Z,10.50
2018-11-13T17:51:51.301Z,10.40
2018-11-13T17:54:19.812Z,10.40
2018-11-13T17:56:48.301Z,10.30
2018-11-13T17:59:16.843Z,10.40
2018-11-13T18:01:45.320Z,10.40
2018-11-13T18:04:13.847Z,10.40
2018-11-13T18:06:42.405Z,10.40
2018-11-13T18:09:12.832Z,10.40
2018-11-13T18:11:41.308Z,10.40
2018-11-13T18:14:10.930Z,10.30
2018-11-13T18:16:39.373Z,10.30
2018-11-13T18:19:07.896Z,10.30
2018-11-13T18:21:36.424Z,10.30
2018-11-13T18:24:06.310Z,10.40
2018-11-13T18:26:34.804Z,10.40
2018-11-13T18:29:03.561Z,10.40
2018-11-13T18:31:32.300Z,10.40
2018-11-13T18:34:01.019Z,10.40
2018-11-13T18:36:29.783Z,10.40
2018-11-13T18:38:58.765Z,10.30
2018-11-13T18:41:27.217Z,10.30
2018-11-13T18:43:55.922Z,10.30
2018-11-13T18:46:24.465Z,10.30
2018-11-13T18:48:53.247Z,10.30
2018-11-13T18:51:22.059Z,10.30
2018-11-13T18:53:50.610Z,10.30
2018-11-13T18:56:19.085Z,10.20
2018-11-13T18:58:48.707Z,10.10
2018-11-13T19:01:17.484Z,10.20
2018-11-13T19:03:46.031Z,10.20
2018-11-13T19:06:14.824Z,10.20
2018-11-13T19:08:43.356Z,10.20
2018-11-13T19:11:12.236Z,10.20
2018-11-13T19:13:40.695Z,10.10
2018-11-13T19:16:10.193Z,10.10
2018-11-13T19:18:38.827Z,10.00
2018-11-13T19:21:07.321Z,10.00
2018-11-13T19:23:35.856Z,10.00
2018-11-13T19:26:05.117Z,10.00
2018-11-13T19:28:33.558Z,10.00
2018-11-13T19:31:02.079Z,10.00
2018-11-13T19:33:32.503Z,10.00
2018-11-13T19:36:01.547Z,10.00
2018-11-13T19:38:29.970Z,9.90
2018-11-13T19:40:58.469Z,9.90
2018-11-13T19:43:27.523Z,9.90
2018-11-13T19:45:56.019Z,9.90
2018-11-13T19:48:24.453Z,9.90
2018-11-13T19:50:52.933Z,9.90
2018-11-13T19:53:21.449Z,9.90
2018-11-13T19:55:49.994Z,9.90
2018-11-13T19:58:18.440Z,9.80
2018-11-13T20:00:46.885Z,9.80
2018-11-13T20:03:15.449Z,9.80
2018-11-13T20:05:45.249Z,9.70
2018-11-13T20:08:13.710Z,9.60
2018-11-13T20:10:42.133Z,9.70
2018-11-13T20:13:11.013Z,9.70
2018-11-13T20:15:39.805Z,9.70
2018-11-13T20:18:08.402Z,9.60
2018-11-13T20:20:37.077Z,9.60
2018-11-13T20:23:06.863Z,9.60
2018-11-13T20:25:35.981Z,9.60
2018-11-13T20:28:04.507Z,9.50
2018-11-13T20:30:34.291Z,9.50
2018-11-13T20:33:02.739Z,9.60
2018-11-13T20:35:31.188Z,9.60
2018-11-13T20:38:00.953Z,9.50
2018-11-13T20:40:30.672Z,9.50
2018-11-13T20:43:00.493Z,9.60
2018-11-13T20:45:28.992Z,9.60
2018-11-13T20:47:57.852Z,9.70
2018-11-13T20:50:27.692Z,9.80
2018-11-13T20:52:57.218Z,9.70
2018-11-13T20:55:25.718Z,9.70
2018-11-13T20:57:54.240Z,9.70
2018-11-13T21:00:28.085Z,9.60
2018-11-13T21:02:56.694Z,9.50
2018-11-13T21:05:25.370Z,9.40
2018-11-13T21:07:54.581Z,9.50
2018-11-13T21:10:23.428Z,9.30
2018-11-13T21:12:52.495Z,9.30
2018-11-13T21:15:21.770Z,9.20
2018-11-13T21:17:50.200Z,9.20
2018-11-13T21:20:19.439Z,9.20
2018-11-13T21:22:48.088Z,9.20
2018-11-13T21:25:19.374Z,9.30
2018-11-13T21:27:47.704Z,9.30
2018-11-13T21:30:20.817Z,9.40
2018-11-13T21:32:50.124Z,9.40
2018-11-13T21:35:18.730Z,9.40
2018-11-13T21:37:48.654Z,9.30
2018-11-13T21:40:18.387Z,9.30
2018-11-13T21:42:47.745Z,9.20
2018-11-13T21:45:16.956Z,9.30
2018-11-13T21:47:45.435Z,9.30
2018-11-13T21:50:15.505Z,9.20
2018-11-13T21:52:43.967Z,9.30
2018-11-13T21:55:15.411Z,9.30
2018-11-13T21:57:45.036Z,9.20
2018-11-13T22:00:15.722Z,9.10
2018-11-13T22:02:47.581Z,9.20
2018-11-13T22:05:16.102Z,9.40
2018-11-13T22:07:44.574Z,9.50
2018-11-13T22:10:13.037Z,9.40
2018-11-13T22:12:41.567Z,9.50
2018-11-13T22:15:13.168Z,9.40
2018-11-13T22:17:41.437Z,9.40
2018-11-13T22:20:11.596Z,9.20
2018-11-13T22:22:40.190Z,9.30
2018-11-13T22:25:10.697Z,9.30
2018-11-13T22:27:39.672Z,9.40
2018-11-13T22:30:09.855Z,9.40
2018-11-13T22:32:38.694Z,9.50
2018-11-13T22:35:08.660Z,9.50
2018-11-13T22:37:37.484Z,9.40
2018-11-13T22:40:11.762Z,9.40
2018-11-13T22:42:40.308Z,9.50
2018-11-13T22:45:12.908Z,9.40
2018-11-13T22:47:41.447Z,9.50
2018-11-13T22:50:12.533Z,9.40
2018-11-13T22:52:41.595Z,9.50
2018-11-13T22:55:11.025Z,9.50
2018-11-13T22:57:39.883Z,9.60
2018-11-13T23:00:15.914Z,9.60
2018-11-13T23:02:44.344Z,9.60
2018-11-13T23:05:12.780Z,9.50
2018-11-13T23:07:41.423Z,9.60
2018-11-13T23:10:11.453Z,9.60
2018-11-13T23:12:40.568Z,9.70
2018-11-13T23:15:12.352Z,9.70
2018-11-13T23:17:41.778Z,9.60
2018-11-13T23:20:12.138Z,9.60
2018-11-13T23:22:40.608Z,9.50
2018-11-13T23:25:11.161Z,9.60
2018-11-13T23:27:39.663Z,9.50
2018-11-13T23:30:15.446Z,9.60
2018-11-13T23:32:44.208Z,9.50
2018-11-13T23:35:13.290Z,9.60
2018-11-13T23:37:42.492Z,9.60
2018-11-13T23:40:12.973Z,9.50
2018-11-13T23:42:41.722Z,9.60
2018-11-13T23:45:11.015Z,9.40
2018-11-13T23:47:39.471Z,9.40
2018-11-13T23:50:08.483Z,9.50
2018-11-13T23:52:36.973Z,9.40
2018-11-13T23:55:06.396Z,9.50
2018-11-13T23:57:34.862Z,9.50
